Time;durP1;ratioP1;P1;durP2;ratioP2;P2;SDS_P1;SDS_P2;PMS_P1;PMS_P2;Temp;Humidity;BMP_temperature;BMP_pressure;BME280_temperature;BME280_humidity;BME280_pressure;Samples;Min_cycle;Max_cycle;Signal;HPM_P1;HPM_P2
2022/12/29 00:00:06;;;;;;;2.65;1.42;;;4.90;64.20;;;;;;5113173;27;20188;-63
2022/12/29 00:02:33;;;;;;;2.58;1.27;;;4.90;64.10;;;;;;5109297;27;20296;-63
2022/12/29 00:05:00;;;;;;;2.30;1.20;;;4.80;63.20;;;;;;5112731;28;20283;-63
2022/12/29 00:07:28;;;;;;;2.75;1.75;;;4.80;63.30;;;;;;5112269;28;20287;-63
2022/12/29 00:09:56;;;;;;;3.05;1.33;;;4.80;63.40;;;;;;5112687;27;20265;-62
2022/12/29 00:12:23;;;;;;;3.35;1.65;;;4.70;63.00;;;;;;5113215;28;20237;-63
2022/12/29 00:17:35;;;;;;;2.78;1.10;;;4.60;63.20;;;;;;5114734;28;20194;-63
2022/12/29 00:36:44;;;;;;;2.60;1.17;;;4.70;62.00;;;;;;5114369;28;20257;-63
2022/12/29 00:44:49;;;;;;;4.00;1.55;;;4.60;63.30;;;;;;5113291;28;20721;-62
2022/12/29 00:47:16;;;;;;;4.32;2.38;;;4.70;62.20;;;;;;5114267;28;20196;-63
2022/12/29 00:49:43;;;;;;;2.80;1.30;;;4.70;61.90;;;;;;5114410;28;20216;-62
2022/12/29 00:52:11;;;;;;;4.90;1.42;;;4.70;61.20;;;;;;5114417;28;20188;-63
2022/12/29 00:54:41;;;;;;;2.35;1.20;;;4.80;61.40;;;;;;5114190;28;20650;-63
2022/12/29 00:57:10;;;;;;;2.38;1.15;;;4.80;61.60;;;;;;5114148;28;20188;-63
2022/12/29 00:59:38;;;;;;;2.45;1.00;;;4.80;60.90;;;;;;5114169;28;20196;-63
2022/12/29 01:02:06;;;;;;;2.72;1.63;;;4.90;60.30;;;;;;5114029;27;20192;-63
2022/12/29 01:04:33;;;;;;;3.38;1.23;;;4.90;60.20;;;;;;5113886;28;20200;-63
2022/12/29 01:07:00;;;;;;;2.35;1.15;;;4.90;59.90;;;;;;5113960;28;20189;-62
2022/12/29 01:12:14;;;;;;;3.80;1.15;;;5.00;59.60;;;;;;5114001;28;20275;-62
2022/12/29 01:14:41;;;;;;;3.28;1.50;;;5.00;59.70;;;;;;5113283;28;20189;-62
2022/12/29 01:17:08;;;;;;;3.10;1.38;;;4.90;59.50;;;;;;5113650;28;20200;-62
2022/12/29 01:19:36;;;;;;;2.70;1.35;;;5.00;59.60;;;;;;5113728;28;20245;-62
2022/12/29 01:22:03;;;;;;;6.93;1.70;;;5.00;59.60;;;;;;5113560;28;20192;-62
2022/12/29 01:24:30;;;;;;;2.58;1.20;;;5.00;59.80;;;;;;5113510;28;20199;-63
2022/12/29 01:26:57;;;;;;;2.75;1.20;;;5.00;59.20;;;;;;5113478;28;20707;-62
2022/12/29 01:29:26;;;;;;;2.53;1.15;;;5.00;59.20;;;;;;5113566;28;20694;-63
2022/12/29 01:31:53;;;;;;;3.08;1.27;;;5.00;59.10;;;;;;5113285;28;20192;-63
2022/12/29 01:34:20;;;;;;;2.33;1.10;;;5.00;59.10;;;;;;5112980;28;20193;-63
2022/12/29 01:36:47;;;;;;;2.50;1.45;;;5.00;58.80;;;;;;5113437;28;20559;-63
2022/12/29 01:39:14;;;;;;;2.80;1.35;;;5.00;59.00;;;;;;5113327;28;20688;-64
2022/12/29 01:41:41;;;;;;;2.63;1.30;;;5.00;59.30;;;;;;5113290;28;20215;-63
2022/12/29 01:44:45;;;;;;;2.95;1.40;;;5.00;58.80;;;;;;5113254;28;20198;-63
2022/12/29 01:47:15;;;;;;;3.70;1.40;;;4.90;58.80;;;;;;5113047;28;20227;-62
2022/12/29 01:49:42;;;;;;;2.90;1.27;;;4.90;59.10;;;;;;5113285;28;20556;-63
2022/12/29 01:52:09;;;;;;;2.90;1.48;;;4.90;59.20;;;;;;5113183;28;20196;-63
2022/12/29 01:54:39;;;;;;;3.55;1.40;;;5.00;58.70;;;;;;5112814;28;20658;-62
2022/12/29 01:57:13;;;;;;;2.65;1.05;;;5.00;58.80;;;;;;5112879;28;20196;-62
2022/12/29 01:59:46;;;;;;;2.33;1.10;;;5.00;58.90;;;;;;5113059;28;20192;-62
2022/12/29 02:02:15;;;;;;;2.25;0.90;;;4.90;59.10;;;;;;5112995;28;20188;-62
2022/12/29 02:04:44;;;;;;;2.47;0.93;;;4.90;59.10;;;;;;5112907;28;20639;-62
2022/12/29 02:07:17;;;;;;;2.30;0.90;;;5.00;59.30;;;;;;5112899;28;20196;-62
2022/12/29 02:09:47;;;;;;;2.00;0.90;;;5.10;59.10;;;;;;5113042;28;20220;-62
2022/12/29 02:12:15;;;;;;;1.83;1.05;;;5.10;58.90;;;;;;5112812;28;20188;-62
2022/12/29 02:14:42;;;;;;;3.30;1.20;;;5.10;58.90;;;;;;5112862;28;20638;-61
2022/12/29 02:17:18;;;;;;;2.00;1.00;;;5.00;58.80;;;;;;5112525;28;20195;-62
2022/12/29 02:20:14;;;;;;;2.05;0.90;;;5.00;59.10;;;;;;5112821;28;20527;-64
2022/12/29 02:22:59;;;;;;;3.85;0.90;;;5.10;59.00;;;;;;5078843;28;20193;-62
2022/12/29 02:25:47;;;;;;;2.00;0.80;;;5.10;58.90;;;;;;5112641;28;20245;-62
2022/12/29 02:28:48;;;;;;;3.35;1.05;;;5.10;59.10;;;;;;5112769;28;20188;-62
2022/12/29 02:31:23;;;;;;;2.25;0.80;;;5.20;59.30;;;;;;5110340;28;20216;-63
2022/12/29 02:34:05;;;;;;;2.30;1.55;;;5.30;59.40;;;;;;5112607;28;20223;-62
2022/12/29 02:36:42;;;;;;;1.88;0.80;;;5.30;58.70;;;;;;5112251;28;20232;-62
2022/12/29 02:39:19;;;;;;;3.00;1.30;;;5.40;58.80;;;;;;5112642;28;20227;-62
2022/12/29 02:41:58;;;;;;;2.53;1.10;;;5.40;57.70;;;;;;5110670;28;20184;-62
2022/12/29 02:44:34;;;;;;;1.90;0.98;;;5.40;57.90;;;;;;5112498;28;20658;-62
2022/12/29 02:47:11;;;;;;;2.70;1.00;;;5.40;57.70;;;;;;5112248;28;20650;-63
2022/12/29 02:49:43;;;;;;;1.80;0.80;;;5.50;57.50;;;;;;5112213;28;20219;-62
2022/12/29 02:52:17;;;;;;;4.03;1.00;;;5.60;57.30;;;;;;5112465;28;20199;-62
2022/12/29 02:54:45;;;;;;;3.88;1.00;;;5.50;57.30;;;;;;5112548;28;20207;-63
2022/12/29 02:57:15;;;;;;;2.10;1.10;;;5.50;57.20;;;;;;5112646;28;20188;-62
2022/12/29 02:59:45;;;;;;;2.65;2.17;;;5.50;57.50;;;;;;5112484;28;20216;-62
2022/12/29 03:02:35;;;;;;;3.25;1.00;;;5.50;57.70;;;;;;5112397;28;20196;-67
2022/12/29 03:05:34;;;;;;;2.10;1.00;;;5.50;57.30;;;;;;5112334;28;20658;-63
2022/12/29 03:08:07;;;;;;;2.00;0.90;;;5.50;57.60;;;;;;5114606;28;20196;-62
2022/12/29 03:10:47;;;;;;;2.20;1.00;;;5.50;57.70;;;;;;5115785;28;20255;-62
2022/12/29 03:16:22;;;;;;;1.80;0.80;;;5.50;57.30;;;;;;5116131;28;20712;-62
2022/12/29 03:18:57;;;;;;;2.47;0.90;;;5.40;57.20;;;;;;5115797;28;20192;-63
2022/12/29 03:24:13;;;;;;;2.00;1.00;;;5.30;57.40;;;;;;5115755;28;20181;-63
2022/12/29 03:26:42;;;;;;;2.45;1.00;;;5.30;57.40;;;;;;5115948;28;20192;-62
2022/12/29 03:29:10;;;;;;;1.90;0.80;;;5.30;57.30;;;;;;5115939;28;20196;-62
2022/12/29 03:31:40;;;;;;;2.35;1.40;;;5.30;56.60;;;;;;5115671;28;20658;-62
2022/12/29 03:34:10;;;;;;;1.75;0.80;;;5.30;56.90;;;;;;5115798;28;20238;-62
2022/12/29 03:36:44;;;;;;;2.10;0.90;;;5.20;56.80;;;;;;5115506;28;20311;-62
2022/12/29 03:39:13;;;;;;;2.92;0.80;;;5.30;57.00;;;;;;5115664;28;20193;-62
2022/12/29 03:41:44;;;;;;;2.63;1.13;;;5.30;57.20;;;;;;5115408;28;20553;-63
2022/12/29 03:44:12;;;;;;;2.30;1.23;;;5.40;56.80;;;;;;5115692;28;20188;-62
2022/12/29 03:46:39;;;;;;;2.42;1.40;;;5.50;57.00;;;;;;5115694;28;20193;-62
2022/12/29 03:49:08;;;;;;;1.90;0.80;;;5.60;56.20;;;;;;5115287;28;20250;-63
2022/12/29 03:51:35;;;;;;;2.95;1.25;;;5.70;55.80;;;;;;5115230;28;20265;-62
2022/12/29 03:54:02;;;;;;;3.20;1.05;;;5.70;56.10;;;;;;5115135;28;20192;-63
2022/12/29 03:56:29;;;;;;;2.00;0.70;;;5.70;56.20;;;;;;5115305;28;20281;-62
2022/12/29 03:58:56;;;;;;;2.92;1.13;;;5.80;55.80;;;;;;5115270;28;20184;-62
2022/12/29 04:01:23;;;;;;;2.03;0.77;;;5.80;56.00;;;;;;5115507;28;20189;-63
2022/12/29 04:03:50;;;;;;;2.70;1.20;;;5.80;56.10;;;;;;5115315;28;20249;-64
2022/12/29 04:06:19;;;;;;;3.30;0.98;;;5.80;55.00;;;;;;5115547;28;20690;-63
2022/12/29 04:08:46;;;;;;;3.03;1.85;;;5.80;55.40;;;;;;5115291;28;20227;-62
2022/12/29 04:11:13;;;;;;;2.42;1.27;;;5.80;55.40;;;;;;5112639;28;20259;-62
2022/12/29 04:13:41;;;;;;;2.25;1.20;;;5.80;55.70;;;;;;5115256;28;20192;-62
2022/12/29 04:16:09;;;;;;;1.92;1.10;;;5.90;55.40;;;;;;5115512;28;20189;-62
2022/12/29 04:18:36;;;;;;;4.15;1.30;;;6.00;55.10;;;;;;5115031;28;20195;-62
2022/12/29 04:21:03;;;;;;;2.50;1.20;;;6.10;54.60;;;;;;5115110;28;20245;-62
2022/12/29 04:23:34;;;;;;;3.13;1.20;;;6.10;54.90;;;;;;5115107;28;20667;-62
2022/12/29 04:26:01;;;;;;;2.45;1.17;;;6.00;54.50;;;;;;5115064;28;20245;-62
2022/12/29 04:28:29;;;;;;;2.35;0.95;;;6.10;54.70;;;;;;5114595;28;20203;-62
2022/12/29 04:30:56;;;;;;;1.70;0.70;;;6.10;54.80;;;;;;5114818;28;20212;-62
2022/12/29 04:33:24;;;;;;;2.50;1.40;;;6.10;54.90;;;;;;5114813;28;20185;-63
2022/12/29 04:35:52;;;;;;;1.90;1.17;;;6.20;55.00;;;;;;5114774;28;20617;-63
2022/12/29 04:38:19;;;;;;;2.28;1.10;;;6.20;54.50;;;;;;5114671;28;20241;-62
2022/12/29 04:40:48;;;;;;;4.75;1.20;;;6.20;54.30;;;;;;5114294;28;20639;-63
2022/12/29 04:43:16;;;;;;;2.38;0.90;;;6.20;54.20;;;;;;5114840;28;20200;-63
2022/12/29 04:45:44;;;;;;;1.75;0.77;;;6.20;54.00;;;;;;5114699;28;20192;-63
2022/12/29 04:48:12;;;;;;;3.25;1.10;;;6.20;53.80;;;;;;5114398;28;20279;-62
2022/12/29 04:50:40;;;;;;;2.10;0.82;;;6.30;53.80;;;;;;5114461;28;20215;-63
2022/12/29 04:53:07;;;;;;;2.45;0.80;;;6.30;53.80;;;;;;5114552;28;20245;-62
2022/12/29 04:55:34;;;;;;;4.45;1.08;;;6.20;53.60;;;;;;5114264;28;20246;-63
2022/12/29 04:58:03;;;;;;;1.70;0.82;;;6.20;53.60;;;;;;5114063;28;20220;-63
2022/12/29 05:00:31;;;;;;;3.05;1.25;;;6.30;53.90;;;;;;5114337;28;20235;-62
2022/12/29 05:02:58;;;;;;;2.38;1.10;;;6.30;53.30;;;;;;5114312;28;20195;-63
2022/12/29 05:05:25;;;;;;;2.33;1.02;;;6.40;53.20;;;;;;5112890;28;20196;-63
2022/12/29 05:07:53;;;;;;;3.80;1.55;;;6.50;53.20;;;;;;5114189;28;20646;-63
2022/12/29 05:10:20;;;;;;;1.83;0.82;;;6.50;52.70;;;;;;5114244;28;20208;-62
2022/12/29 05:12:47;;;;;;;2.67;1.48;;;6.60;53.10;;;;;;5114220;28;20241;-63
2022/12/29 05:15:16;;;;;;;2.22;1.25;;;6.60;53.10;;;;;;5114264;28;20192;-63
2022/12/29 05:17:43;;;;;;;2.63;1.40;;;6.70;53.40;;;;;;5113912;28;20195;-63
2022/12/29 05:20:11;;;;;;;2.30;1.20;;;6.80;53.60;;;;;;5114367;28;20262;-63
2022/12/29 05:22:38;;;;;;;2.40;1.23;;;6.80;54.00;;;;;;5113996;28;20563;-63
2022/12/29 05:25:06;;;;;;;2.63;1.40;;;6.90;54.60;;;;;;5114009;28;20192;-62
2022/12/29 05:27:33;;;;;;;3.03;0.90;;;6.90;53.00;;;;;;5114156;28;20188;-63
2022/12/29 05:30:00;;;;;;;2.42;1.20;;;6.90;51.90;;;;;;5113394;28;20238;-62
2022/12/29 05:32:32;;;;;;;2.13;0.90;;;6.90;52.00;;;;;;5113662;28;20577;-62
2022/12/29 05:34:59;;;;;;;3.42;1.33;;;6.90;52.10;;;;;;5113664;28;20234;-62
2022/12/29 05:37:26;;;;;;;3.08;1.35;;;6.90;52.10;;;;;;5113852;28;20215;-62
2022/12/29 05:39:53;;;;;;;2.00;1.10;;;7.00;51.30;;;;;;5113660;28;20646;-62
2022/12/29 05:42:20;;;;;;;2.30;1.10;;;7.00;51.70;;;;;;5113682;28;20269;-62
2022/12/29 05:44:49;;;;;;;2.58;1.10;;;7.00;52.20;;;;;;5113766;28;20607;-62
2022/12/29 05:47:16;;;;;;;1.90;1.05;;;7.00;52.00;;;;;;5113367;28;20223;-63
2022/12/29 05:49:45;;;;;;;7.70;1.48;;;7.00;52.20;;;;;;5113585;28;20195;-63
2022/12/29 05:52:12;;;;;;;2.85;1.50;;;6.90;51.70;;;;;;5113586;28;20212;-62
2022/12/29 05:54:39;;;;;;;2.53;1.40;;;6.90;51.90;;;;;;5113464;28;20204;-63
2022/12/29 05:57:06;;;;;;;1.77;0.93;;;7.00;51.90;;;;;;5112578;28;20285;-63
2022/12/29 05:59:33;;;;;;;4.18;1.52;;;7.00;52.50;;;;;;5113635;28;20203;-63
2022/12/29 06:02:00;;;;;;;6.55;1.60;;;7.00;52.90;;;;;;5113201;28;20723;-63
2022/12/29 06:04:28;;;;;;;3.20;1.40;;;7.00;52.60;;;;;;5113257;28;20689;-62
2022/12/29 06:06:56;;;;;;;6.97;2.20;;;7.00;52.40;;;;;;5113084;28;20700;-63
2022/12/29 06:09:24;;;;;;;3.50;2.25;;;7.00;52.00;;;;;;5113178;28;20193;-62
2022/12/29 06:11:51;;;;;;;2.45;1.40;;;7.00;52.20;;;;;;5113133;28;20650;-63
2022/12/29 06:14:18;;;;;;;2.20;1.20;;;7.00;52.10;;;;;;5113273;28;20207;-63
2022/12/29 06:16:45;;;;;;;3.70;1.40;;;7.00;51.80;;;;;;5113250;28;20196;-63
2022/12/29 06:19:13;;;;;;;5.10;1.45;;;7.10;51.80;;;;;;5113139;28;20191;-62
2022/12/29 06:21:40;;;;;;;2.92;1.30;;;7.10;52.30;;;;;;5113058;28;20189;-64
2022/12/29 06:24:10;;;;;;;2.63;1.70;;;7.20;52.30;;;;;;5112878;28;20279;-63
2022/12/29 06:26:37;;;;;;;2.60;1.60;;;7.20;51.70;;;;;;5113016;28;20188;-63
2022/12/29 06:29:05;;;;;;;2.78;1.65;;;7.20;51.70;;;;;;5112999;28;20197;-63
2022/12/29 06:31:32;;;;;;;3.80;1.95;;;7.20;51.40;;;;;;5112823;28;20219;-63
2022/12/29 06:33:59;;;;;;;3.95;2.00;;;7.20;51.10;;;;;;5112925;28;20188;-63
2022/12/29 06:36:26;;;;;;;2.47;1.30;;;7.20;52.00;;;;;;5112825;28;20622;-63
2022/12/29 06:38:53;;;;;;;3.45;1.60;;;7.20;52.20;;;;;;5112731;28;20250;-63
2022/12/29 06:41:22;;;;;;;17.88;2.72;;;7.30;52.30;;;;;;5112835;28;20612;-67
2022/12/29 06:43:49;;;;;;;5.43;2.60;;;7.30;52.80;;;;;;5116705;28;20642;-62
2022/12/29 06:46:16;;;;;;;10.68;2.33;;;7.30;53.70;;;;;;5117102;28;20199;-63
2022/12/29 06:48:44;;;;;;;5.65;2.03;;;7.20;53.70;;;;;;5117061;28;20260;-63
2022/12/29 06:51:11;;;;;;;8.55;3.15;;;7.30;53.30;;;;;;5116682;28;20212;-63
2022/12/29 06:53:38;;;;;;;14.43;2.42;;;7.30;53.30;;;;;;5116855;28;20196;-62
2022/12/29 06:56:06;;;;;;;5.20;2.53;;;7.30;53.30;;;;;;5116864;28;20710;-62
2022/12/29 06:58:34;;;;;;;3.50;1.90;;;7.30;52.50;;;;;;5116900;28;20193;-62
2022/12/29 07:01:01;;;;;;;3.53;1.88;;;7.30;51.60;;;;;;5114586;28;20196;-62
2022/12/29 07:03:28;;;;;;;7.05;1.80;;;7.30;51.70;;;;;;5116407;28;20292;-62
2022/12/29 07:05:57;;;;;;;5.25;2.00;;;7.30;51.80;;;;;;5116483;28;20188;-63
2022/12/29 07:08:25;;;;;;;7.25;1.95;;;7.20;53.50;;;;;;5116800;28;20298;-63
2022/12/29 07:10:52;;;;;;;4.80;2.17;;;7.10;54.00;;;;;;5116197;28;20192;-63
2022/12/29 07:13:20;;;;;;;3.95;1.65;;;7.00;54.10;;;;;;5116490;28;20659;-63
2022/12/29 07:15:48;;;;;;;7.68;2.40;;;7.00;54.50;;;;;;5116606;28;20280;-63
2022/12/29 07:18:16;;;;;;;7.35;2.25;;;6.80;54.80;;;;;;5116619;28;20203;-66
2022/12/29 07:20:43;;;;;;;6.47;2.05;;;6.70;54.80;;;;;;5116428;28;20192;-63
2022/12/29 07:23:10;;;;;;;3.80;2.03;;;6.70;53.20;;;;;;5116425;28;20683;-63
2022/12/29 07:25:37;;;;;;;6.78;2.72;;;6.70;53.20;;;;;;5116175;28;20647;-62
2022/12/29 07:28:04;;;;;;;3.08;2.15;;;6.80;53.60;;;;;;5116119;28;20238;-62
2022/12/29 07:30:31;;;;;;;4.28;2.28;;;6.90;53.80;;;;;;5116507;28;20216;-62
2022/12/29 07:33:00;;;;;;;10.50;3.08;;;6.90;54.30;;;;;;5115804;28;20690;-62
2022/12/29 07:35:28;;;;;;;4.95;3.28;;;6.90;54.70;;;;;;5115284;28;20223;-62
2022/12/29 07:37:54;;;;;;;9.57;3.85;;;6.90;54.90;;;;;;5114830;28;20195;-62
2022/12/29 07:40:22;;;;;;;7.32;3.22;;;6.90;55.10;;;;;;5114838;28;20193;-63
2022/12/29 07:42:49;;;;;;;3.55;2.15;;;6.90;56.00;;;;;;5114704;28;20215;-63
2022/12/29 07:45:16;;;;;;;4.40;2.00;;;6.80;56.10;;;;;;5108427;28;20644;-64
2022/12/29 07:47:43;;;;;;;4.88;2.60;;;6.90;56.50;;;;;;5108819;28;20283;-63
2022/12/29 07:50:12;;;;;;;5.22;2.97;;;6.80;56.90;;;;;;5112957;28;20607;-63
2022/12/29 07:52:39;;;;;;;3.63;2.60;;;6.80;57.20;;;;;;5112191;28;20219;-63
2022/12/29 07:55:07;;;;;;;5.25;3.30;;;6.80;57.30;;;;;;5112200;28;20228;-63
2022/12/29 07:57:34;;;;;;;4.40;2.72;;;6.90;57.50;;;;;;5112786;28;20254;-62
2022/12/29 08:00:03;;;;;;;4.78;2.85;;;7.00;58.10;;;;;;5112674;28;20241;-62
2022/12/29 08:02:30;;;;;;;3.88;2.53;;;6.90;57.80;;;;;;5112812;28;20192;-62
2022/12/29 08:04:58;;;;;;;6.28;3.50;;;6.80;57.90;;;;;;5112057;28;20192;-63
2022/12/29 08:07:26;;;;;;;6.88;4.35;;;6.70;58.10;;;;;;5112614;28;20551;-62
2022/12/29 08:09:53;;;;;;;8.70;3.90;;;6.70;58.30;;;;;;5112351;28;20189;-63
2022/12/29 08:12:20;;;;;;;9.18;5.28;;;6.60;58.50;;;;;;5112412;28;20216;-63
2022/12/29 08:14:47;;;;;;;12.05;6.05;;;6.70;58.50;;;;;;5104818;28;20249;-62
2022/12/29 08:17:15;;;;;;;11.02;6.43;;;6.80;58.20;;;;;;5112222;28;20224;-62
2022/12/29 08:19:42;;;;;;;7.75;6.03;;;6.90;57.80;;;;;;5111302;28;20595;-62
2022/12/29 08:22:09;;;;;;;8.85;5.60;;;6.90;57.50;;;;;;5107573;28;20369;-63
2022/12/29 08:24:38;;;;;;;6.65;4.57;;;6.90;57.20;;;;;;5107540;28;20223;-63
2022/12/29 08:27:05;;;;;;;6.40;4.70;;;6.70;57.10;;;;;;5111374;28;20227;-65
2022/12/29 08:29:34;;;;;;;4.22;3.40;;;6.80;57.70;;;;;;5107118;28;20177;-64
2022/12/29 08:32:06;;;;;;;5.90;3.70;;;6.80;57.30;;;;;;5109898;28;20220;-64
2022/12/29 08:34:34;;;;;;;9.70;3.10;;;6.80;57.70;;;;;;5064364;28;1279672;-63
2022/12/29 08:37:01;;;;;;;4.05;2.20;;;6.90;57.70;;;;;;5110881;28;20203;-64
2022/12/29 08:39:31;;;;;;;3.45;2.25;;;7.00;57.70;;;;;;5110075;28;20653;-64
2022/12/29 08:42:00;;;;;;;5.25;3.50;;;7.20;57.30;;;;;;5111261;27;20184;-63
2022/12/29 08:44:28;;;;;;;6.07;2.80;;;7.40;56.80;;;;;;5109116;28;20192;-62
2022/12/29 08:46:55;;;;;;;4.13;2.35;;;7.80;55.20;;;;;;5110640;27;20202;-63
2022/12/29 08:49:22;;;;;;;4.30;1.90;;;8.00;53.50;;;;;;5106366;28;20226;-63
2022/12/29 08:51:49;;;;;;;4.20;1.48;;;8.10;52.20;;;;;;5110698;27;20212;-64
2022/12/29 08:54:16;;;;;;;6.07;3.50;;;8.10;50.30;;;;;;5110910;28;20539;-64
2022/12/29 08:56:43;;;;;;;15.43;7.35;;;7.90;50.80;;;;;;5111189;27;20205;-64
2022/12/29 08:59:12;;;;;;;11.82;5.20;;;7.90;50.30;;;;;;5103429;28;20215;-63
2022/12/29 09:01:40;;;;;;;3.95;2.00;;;7.90;49.80;;;;;;5109871;27;20287;-65
2022/12/29 09:04:07;;;;;;;10.55;3.47;;;7.90;48.90;;;;;;5110052;28;20201;-63
2022/12/29 09:06:34;;;;;;;14.80;9.15;;;7.90;49.60;;;;;;5109138;28;20289;-63
2022/12/29 09:09:02;;;;;;;10.57;5.70;;;8.10;49.50;;;;;;5109377;28;20232;-63
2022/12/29 09:11:29;;;;;;;12.13;6.05;;;8.40;49.70;;;;;;5109677;28;20205;-66
2022/12/29 09:13:57;;;;;;;29.08;20.15;;;8.50;47.90;;;;;;5110436;27;20636;-63
2022/12/29 09:16:26;;;;;;;18.45;12.88;;;8.80;48.50;;;;;;5109735;28;20204;-63
2022/12/29 09:18:54;;;;;;;35.45;18.65;;;9.20;48.60;;;;;;5109966;28;20191;-66
2022/12/29 09:21:21;;;;;;;8.57;5.78;;;9.60;47.10;;;;;;5110355;28;20311;-63
2022/12/29 09:23:49;;;;;;;26.95;15.07;;;10.00;46.00;;;;;;5109884;28;20575;-64
2022/12/29 09:26:16;;;;;;;35.13;18.05;;;10.50;45.70;;;;;;5108077;28;20203;-64
2022/12/29 09:28:44;;;;;;;28.98;13.95;;;11.10;44.60;;;;;;5109713;27;20241;-63
2022/12/29 09:31:11;;;;;;;27.92;13.70;;;11.60;43.40;;;;;;5111648;28;20192;-63
2022/12/29 09:33:40;;;;;;;18.70;7.70;;;12.00;42.70;;;;;;5107314;28;20298;-64
2022/12/29 09:36:09;;;;;;;23.23;11.20;;;12.50;40.60;;;;;;5110721;28;20255;-63
2022/12/29 09:38:36;;;;;;;19.23;9.57;;;12.90;40.40;;;;;;5110742;28;20445;-64
2022/12/29 09:41:15;;;;;;;25.03;14.53;;;13.30;40.10;;;;;;5110790;28;20517;-63
2022/12/29 09:44:10;;;;;;;8.70;3.80;;;13.30;38.40;;;;;;5110902;28;20551;-64
2022/12/29 09:46:41;;;;;;;4.80;2.37;;;13.40;38.60;;;;;;5108549;28;20458;-64
2022/12/29 09:49:20;;;;;;;17.77;11.20;;;13.30;38.90;;;;;;5110692;28;20438;-64
2022/12/29 09:51:53;;;;;;;16.63;8.67;;;13.40;40.30;;;;;;5108293;28;20519;-63
2022/12/29 09:54:28;;;;;;;25.33;12.50;;;13.20;38.10;;;;;;5109837;28;20437;-64
2022/12/29 09:56:57;;;;;;;14.60;7.83;;;13.00;38.00;;;;;;5108337;27;20430;-65
2022/12/29 09:59:28;;;;;;;45.80;18.40;;;12.90;38.60;;;;;;5109856;28;20483;-64
2022/12/29 10:02:00;;;;;;;9.37;4.03;;;12.60;38.40;;;;;;5109160;28;20483;-65
2022/12/29 10:04:29;;;;;;;2.63;1.63;;;12.50;39.20;;;;;;5109302;28;20434;-63
2022/12/29 10:07:04;;;;;;;16.60;6.33;;;12.30;39.30;;;;;;5109271;27;20495;-64
2022/12/29 10:09:35;;;;;;;8.67;2.43;;;12.20;40.40;;;;;;5106941;27;20502;-64
2022/12/29 10:12:16;;;;;;;4.93;2.27;;;12.20;40.00;;;;;;5109338;28;20474;-63
2022/12/29 10:14:58;;;;;;;19.87;10.00;;;12.10;40.10;;;;;;5109600;28;20441;-63
2022/12/29 10:17:32;;;;;;;37.00;25.27;;;12.00;40.10;;;;;;5109329;28;20491;-64
2022/12/29 10:20:26;;;;;;;11.50;6.50;;;11.90;40.50;;;;;;5106630;28;20433;-63
2022/12/29 10:23:13;;;;;;;5.50;3.37;;;11.80;39.60;;;;;;5106381;28;20473;-65
2022/12/29 10:25:43;;;;;;;3.90;2.70;;;11.70;39.60;;;;;;5109644;28;20454;-63
2022/12/29 10:28:20;;;;;;;5.00;2.83;;;11.70;39.20;;;;;;5110258;28;20826;-63
2022/12/29 10:30:49;;;;;;;3.93;1.87;;;11.70;38.90;;;;;;5109693;28;20567;-64
2022/12/29 10:33:25;;;;;;;2.47;1.20;;;11.50;39.00;;;;;;5109774;28;20565;-63
2022/12/29 10:35:54;;;;;;;2.50;1.40;;;11.30;39.40;;;;;;5109919;28;20215;-64
2022/12/29 10:38:27;;;;;;;3.40;1.70;;;11.30;40.10;;;;;;5106452;28;20458;-63
2022/12/29 10:41:01;;;;;;;2.80;1.70;;;11.30;40.20;;;;;;5110311;28;20441;-64
2022/12/29 10:43:30;;;;;;;3.33;1.85;;;11.30;39.70;;;;;;5109348;28;20286;-64
2022/12/29 10:46:00;;;;;;;2.80;1.25;;;11.30;40.20;;;;;;5110640;28;20241;-63
2022/12/29 10:48:31;;;;;;;2.70;1.53;;;11.40;40.20;;;;;;5108782;28;20192;-63
2022/12/29 10:51:02;;;;;;;2.43;1.20;;;11.60;41.00;;;;;;5110805;28;20434;-63
2022/12/29 10:53:39;;;;;;;2.63;1.50;;;11.70;40.10;;;;;;5100769;28;20562;-65
2022/12/29 10:56:15;;;;;;;2.72;1.40;;;12.00;39.40;;;;;;5107575;28;20434;-64
2022/12/29 10:58:46;;;;;;;9.70;2.13;;;12.20;40.90;;;;;;5103948;28;20199;-65
2022/12/29 11:01:14;;;;;;;5.00;2.50;;;12.40;41.30;;;;;;5108031;28;20438;-64
2022/12/29 11:03:55;;;;;;;4.40;1.70;;;12.60;41.60;;;;;;5105374;28;20434;-63
2022/12/29 11:06:27;;;;;;;4.50;2.40;;;12.80;41.00;;;;;;5106965;28;20438;-64
2022/12/29 11:08:58;;;;;;;5.57;2.50;;;13.00;41.80;;;;;;5106540;28;20509;-66
2022/12/29 11:11:27;;;;;;;5.77;1.87;;;12.90;37.40;;;;;;5110142;28;20438;-63
2022/12/29 11:14:02;;;;;;;2.40;1.53;;;12.90;37.70;;;;;;5108208;28;20536;-65
2022/12/29 11:16:32;;;;;;;3.30;1.87;;;12.70;36.70;;;;;;5107651;28;20425;-64
2022/12/29 11:18:59;;;;;;;2.33;1.57;;;12.80;37.60;;;;;;5110052;28;20442;-64
2022/12/29 11:21:33;;;;;;;2.57;1.23;;;12.70;36.60;;;;;;5110036;28;20788;-64
2022/12/29 11:24:02;;;;;;;3.00;1.73;;;12.60;36.70;;;;;;5107281;28;20438;-63
2022/12/29 11:26:30;;;;;;;3.23;1.60;;;12.40;37.20;;;;;;5110632;28;20439;-63
2022/12/29 11:29:17;;;;;;;2.13;1.07;;;12.30;36.60;;;;;;5112031;28;20437;-64
2022/12/29 11:31:46;;;;;;;2.60;1.20;;;12.20;36.40;;;;;;5114180;28;20438;-63
2022/12/29 11:34:23;;;;;;;2.60;1.63;;;12.10;37.20;;;;;;5107832;28;20474;-63
2022/12/29 11:36:54;;;;;;;2.63;1.47;;;12.00;37.80;;;;;;5113930;28;20438;-64
2022/12/29 11:39:35;;;;;;;3.73;1.50;;;12.10;37.90;;;;;;5113056;28;20434;-63
2022/12/29 11:42:04;;;;;;;3.10;1.80;;;12.20;37.40;;;;;;5113749;28;20446;-63
2022/12/29 11:44:38;;;;;;;3.80;1.70;;;12.10;37.10;;;;;;5113548;28;20517;-64
2022/12/29 11:47:06;;;;;;;5.07;2.23;;;12.30;37.80;;;;;;5113726;28;20475;-63
2022/12/29 11:49:34;;;;;;;3.63;2.03;;;12.60;37.50;;;;;;5114204;28;20944;-63
2022/12/29 11:52:03;;;;;;;5.50;2.70;;;13.00;37.40;;;;;;5112760;28;20985;-64
2022/12/29 11:54:34;;;;;;;5.50;2.83;;;13.40;37.50;;;;;;5113757;28;20442;-63
2022/12/29 11:57:12;;;;;;;6.77;3.10;;;13.50;37.00;;;;;;5113607;28;20806;-63
2022/12/29 11:59:44;;;;;;;6.40;4.50;;;13.60;35.90;;;;;;5110458;28;20426;-63
2022/12/29 12:02:43;;;;;;;4.87;3.60;;;13.80;37.40;;;;;;5113321;28;20427;-63
2022/12/29 12:05:23;;;;;;;5.43;3.90;;;14.00;36.40;;;;;;5113638;28;20422;-65
2022/12/29 12:08:00;;;;;;;5.33;1.87;;;14.20;35.60;;;;;;5110750;28;20438;-63
2022/12/29 12:10:33;;;;;;;8.50;2.57;;;14.30;35.90;;;;;;5113260;28;20434;-63
2022/12/29 12:13:13;;;;;;;3.03;2.00;;;14.40;35.30;;;;;;5113404;28;20573;-63
2022/12/29 12:15:45;;;;;;;3.43;1.60;;;14.70;34.80;;;;;;5113654;28;20521;-64
2022/12/29 12:18:18;;;;;;;3.40;1.50;;;14.60;33.00;;;;;;5113033;28;20440;-64
2022/12/29 12:20:50;;;;;;;3.67;2.10;;;14.50;33.10;;;;;;5112866;28;20435;-65
2022/12/29 12:23:33;;;;;;;3.50;1.60;;;14.50;33.40;;;;;;5109677;28;20462;-64
2022/12/29 12:26:10;;;;;;;2.63;1.30;;;14.50;34.50;;;;;;5112888;28;20514;-64
2022/12/29 12:28:47;;;;;;;2.87;1.47;;;14.80;34.00;;;;;;5112994;28;20430;-63
2022/12/29 12:31:23;;;;;;;3.10;1.70;;;15.00;34.00;;;;;;5113301;28;20445;-64
2022/12/29 12:33:59;;;;;;;4.57;1.43;;;15.30;32.80;;;;;;5112534;27;20645;-61
2022/12/29 12:36:50;;;;;;;3.13;1.43;;;15.60;32.70;;;;;;5112812;28;20876;-61
2022/12/29 12:39:35;;;;;;;4.30;1.70;;;15.90;32.60;;;;;;5111582;28;20439;-61
2022/12/29 12:42:15;;;;;;;2.73;1.50;;;16.30;33.80;;;;;;5112894;28;20438;-62
2022/12/29 12:44:55;;;;;;;2.93;1.30;;;16.90;31.70;;;;;;5112790;28;20993;-62
2022/12/29 12:47:46;;;;;;;2.40;1.10;;;17.10;30.10;;;;;;5112664;28;20438;-64
2022/12/29 12:50:33;;;;;;;2.80;1.17;;;16.80;30.10;;;;;;5111782;28;20437;-62
2022/12/29 12:53:27;;;;;;;2.60;1.10;;;16.70;30.60;;;;;;5110698;28;20839;-63
2022/12/29 12:56:17;;;;;;;3.57;1.40;;;16.70;31.40;;;;;;5111256;28;20487;-62
2022/12/29 12:58:53;;;;;;;2.60;1.10;;;16.80;31.20;;;;;;5110465;28;20959;-63
2022/12/29 13:01:35;;;;;;;2.43;1.30;;;16.80;29.80;;;;;;5112952;28;20438;-63
2022/12/29 13:04:28;;;;;;;4.10;1.53;;;16.70;30.40;;;;;;5112052;28;20438;-63
2022/12/29 13:07:05;;;;;;;2.20;1.00;;;16.50;30.10;;;;;;5112925;28;20513;-62
2022/12/29 13:09:49;;;;;;;4.10;1.17;;;16.30;29.90;;;;;;5112365;28;20469;-62
2022/12/29 13:12:29;;;;;;;6.17;1.43;;;16.00;30.80;;;;;;5112684;28;20487;-63
2022/12/29 13:15:13;;;;;;;2.93;1.70;;;15.70;30.50;;;;;;5112358;28;20491;-62
2022/12/29 13:17:45;;;;;;;4.33;1.37;;;15.50;30.00;;;;;;5112049;28;20526;-63
2022/12/29 13:20:25;;;;;;;2.73;1.53;;;15.30;30.30;;;;;;5112093;28;20518;-63
2022/12/29 13:22:59;;;;;;;3.20;1.40;;;15.10;31.60;;;;;;5110234;28;20454;-63
2022/12/29 13:25:35;;;;;;;2.37;1.30;;;14.90;32.20;;;;;;5111645;28;20436;-63
2022/12/29 13:28:11;;;;;;;2.00;1.00;;;14.70;31.00;;;;;;5111249;28;20434;-62
2022/12/29 13:30:48;;;;;;;5.80;1.40;;;14.60;31.50;;;;;;5111656;28;20487;-63
2022/12/29 13:33:27;;;;;;;2.97;1.30;;;14.50;31.90;;;;;;5111807;27;20470;-63
2022/12/29 13:36:00;;;;;;;3.40;1.40;;;14.40;32.10;;;;;;5112013;28;20514;-63
2022/12/29 13:38:33;;;;;;;3.50;1.40;;;14.30;32.60;;;;;;5111755;28;20454;-63
2022/12/29 13:41:06;;;;;;;3.80;1.23;;;14.20;32.90;;;;;;5111133;28;20434;-63
2022/12/29 13:43:40;;;;;;;2.17;1.13;;;14.20;33.20;;;;;;5112217;28;20429;-63
2022/12/29 13:46:13;;;;;;;2.40;1.10;;;14.10;33.00;;;;;;5111530;28;20436;-63